createdAt,value
2022-09-17T00:04:50.571Z,97599.50
2022-09-17T00:09:52.818Z,97563.94
2022-09-17T00:14:54.950Z,97551.16
2022-09-17T00:19:57.248Z,97585.75
2022-09-17T00:24:59.384Z,97575.72
2022-09-17T00:30:01.744Z,97597.44
2022-09-17T00:35:06.031Z,97588.16
2022-09-17T00:40:09.089Z,97595.41
2022-09-17T00:45:12.362Z,97602.56
2022-09-17T00:50:19.920Z,97614.69
2022-09-17T00:55:27.304Z,97603.81
2022-09-17T01:00:32.892Z,97635.03
2022-09-17T01:06:10.457Z,97618.66
2022-09-17T01:11:32.401Z,97613.13
2022-09-17T01:17:10.273Z,97614.16
2022-09-17T01:22:18.427Z,97639.44
2022-09-17T01:27:31.922Z,97614.75
2022-09-17T01:32:46.225Z,97606.25
2022-09-17T01:38:09.088Z,97605.72
2022-09-17T01:43:21.994Z,97611.16
2022-09-17T01:48:30.864Z,97612.09
2022-09-17T01:53:49.145Z,97548.00
2022-09-17T01:58:56.859Z,97643.50
2022-09-17T02:04:33.965Z,97629.88
2022-09-17T02:09:41.933Z,97657.75
2022-09-17T02:14:53.985Z,97622.69
2022-09-17T02:19:56.472Z,97616.19
2022-09-17T02:25:27.612Z,97664.94
2022-09-17T02:30:30.253Z,97640.41
2022-09-17T02:35:33.516Z,97655.97
2022-09-17T02:40:49.022Z,97662.19
2022-09-17T02:46:19.485Z,97629.75
2022-09-17T02:51:27.840Z,97671.75
2022-09-17T02:57:09.023Z,97623.72
2022-09-17T03:02:21.150Z,97662.66
2022-09-17T03:07:24.047Z,97663.66
2022-09-17T03:12:27.070Z,97606.31
2022-09-17T03:17:29.905Z,97651.94
2022-09-17T03:22:32.657Z,97627.06
2022-09-17T03:27:34.976Z,97668.41
2022-09-17T03:32:37.159Z,97646.13
2022-09-17T03:37:39.415Z,97685.78
2022-09-17T03:42:41.598Z,97646.34
2022-09-17T03:47:43.810Z,97697.03
2022-09-17T03:52:46.054Z,97650.81
2022-09-17T03:57:48.255Z,97698.88
2022-09-17T04:02:50.615Z,97685.22
2022-09-17T04:07:52.952Z,97648.38
2022-09-17T04:12:55.098Z,97687.00
2022-09-17T04:18:01.000Z,97683.69
2022-09-17T04:23:03.121Z,97681.88
2022-09-17T04:28:05.356Z,97716.13
2022-09-17T04:33:07.595Z,97722.16
2022-09-17T04:38:09.996Z,97690.28
2022-09-17T04:43:12.590Z,97652.44
2022-09-17T04:48:14.992Z,97742.50
2022-09-17T04:53:17.341Z,97725.19
2022-09-17T04:58:22.502Z,97724.22
2022-09-17T05:03:24.829Z,97696.78
2022-09-17T05:08:27.124Z,97693.22
2022-09-17T05:13:29.351Z,97712.09
2022-09-17T05:18:31.860Z,97654.41
2022-09-17T05:23:34.015Z,97726.53
2022-09-17T05:28:36.821Z,97719.66
2022-09-17T05:33:39.000Z,97674.13
2022-09-17T05:38:44.928Z,97747.88
2022-09-17T05:43:47.254Z,97726.19
2022-09-17T05:48:49.504Z,97749.28
2022-09-17T05:53:51.689Z,97678.03
2022-09-17T05:58:57.472Z,97779.06
2022-09-17T06:03:59.656Z,97744.59
2022-09-17T06:09:01.851Z,97744.59
2022-09-17T06:14:04.303Z,97751.41
2022-09-17T06:19:06.882Z,97789.81
2022-09-17T06:24:10.733Z,97800.97
2022-09-17T06:29:15.469Z,97769.81
2022-09-17T06:34:18.244Z,97775.72
2022-09-17T06:39:20.517Z,97705.25
2022-09-17T06:44:22.656Z,97811.50
2022-09-17T06:49:24.849Z,97793.47
2022-09-17T06:54:27.090Z,97795.00
2022-09-17T06:59:29.351Z,97814.69
2022-09-17T07:04:31.535Z,97821.28
2022-09-17T07:09:36.847Z,97803.84
2022-09-17T07:14:40.385Z,97823.75
2022-09-17T07:19:42.577Z,97833.97
2022-09-17T07:24:45.040Z,97839.63
2022-09-17T07:29:47.263Z,97800.88
2022-09-17T07:34:49.726Z,97830.63
2022-09-17T07:39:51.973Z,97803.19
2022-09-17T07:44:57.514Z,97818.53
2022-09-17T07:50:02.076Z,97816.75
2022-09-17T07:55:08.573Z,97817.31
2022-09-17T08:00:11.537Z,97824.88
2022-09-17T08:05:13.924Z,97721.72
2022-09-17T08:10:18.037Z,97691.47
2022-09-17T08:15:20.376Z,97823.72
2022-09-17T08:20:24.402Z,97809.78
2022-09-17T08:25:26.942Z,97825.63
2022-09-17T08:30:29.143Z,97788.00
2022-09-17T08:35:31.247Z,97844.84
2022-09-17T08:40:39.903Z,97838.06
2022-09-17T08:45:42.333Z,97791.81
2022-09-17T08:50:44.483Z,97764.91
2022-09-17T08:55:50.488Z,97702.81
2022-09-17T09:01:05.520Z,97834.66
2022-09-17T09:06:10.850Z,97741.91
2022-09-17T09:11:16.763Z,97756.91
2022-09-17T09:16:21.546Z,97760.13
2022-09-17T09:21:50.692Z,97841.91
2022-09-17T09:27:05.282Z,97854.66
2022-09-17T09:32:22.587Z,97837.41
2022-09-17T09:37:37.283Z,97816.81
2022-09-17T09:42:40.178Z,97799.66
2022-09-17T09:48:07.219Z,97812.66
2022-09-17T09:53:47.683Z,97831.50
2022-09-17T09:58:49.901Z,97851.81
2022-09-17T10:03:54.214Z,97863.53
2022-09-17T10:08:58.594Z,97863.09
2022-09-17T10:14:19.482Z,97877.31
2022-09-17T10:19:26.033Z,97831.50
2022-09-17T10:24:31.338Z,97885.31
2022-09-17T10:29:34.340Z,97873.81
2022-09-17T10:34:36.591Z,97832.09
2022-09-17T10:39:46.832Z,97846.88
2022-09-17T10:44:56.863Z,97893.03
2022-09-17T10:50:17.694Z,97885.50
2022-09-17T10:55:33.675Z,97885.69
2022-09-17T11:00:45.257Z,97803.66
2022-09-17T11:05:59.778Z,97899.84
2022-09-17T11:11:13.802Z,97897.38
2022-09-17T11:16:33.601Z,97846.38
2022-09-17T11:21:41.903Z,97903.94
2022-09-17T11:26:58.912Z,97893.22
2022-09-17T11:32:30.078Z,97897.03
2022-09-17T11:37:38.230Z,97898.47
2022-09-17T11:42:48.105Z,97871.94
2022-09-17T11:48:05.970Z,97874.25
2022-09-17T11:53:23.707Z,97905.88
2022-09-17T11:58:28.854Z,97902.72
2022-09-17T12:03:37.926Z,97913.41
2022-09-17T12:08:54.793Z,97901.91
2022-09-17T12:14:18.644Z,97886.91
2022-09-17T12:19:37.081Z,97900.69
2022-09-17T12:24:39.407Z,97896.72
2022-09-17T12:29:44.616Z,97922.81
2022-09-17T12:35:08.395Z,97938.72
2022-09-17T12:40:19.586Z,97950.81
2022-09-17T12:45:24.972Z,97956.38
2022-09-17T12:50:52.209Z,97930.41
2022-09-17T12:56:00.331Z,97969.19
2022-09-17T13:01:43.077Z,97971.66
2022-09-17T13:07:10.834Z,97932.09
2022-09-17T13:12:22.018Z,97974.16
2022-09-17T13:17:41.002Z,97963.53
2022-09-17T13:22:50.370Z,97869.78
2022-09-17T13:28:07.918Z,97865.25
2022-09-17T13:33:11.404Z,97933.19
2022-09-17T13:38:13.764Z,97881.63
2022-09-17T13:43:18.437Z,97962.50
2022-09-17T13:48:22.484Z,97872.94
2022-09-17T13:53:27.348Z,97951.69
2022-09-17T13:58:31.774Z,97848.56
2022-09-17T14:03:40.763Z,97946.78
2022-09-17T14:08:48.289Z,97946.66
2022-09-17T14:14:03.228Z,97909.47
2022-09-17T14:19:23.771Z,97969.22
2022-09-17T14:24:37.015Z,97958.16
2022-09-17T14:29:51.337Z,97981.66
2022-09-17T14:34:53.568Z,97924.09
2022-09-17T14:39:56.145Z,97972.09
2022-09-17T14:45:21.549Z,97908.22
2022-09-17T14:50:26.054Z,97943.00
2022-09-17T14:55:31.575Z,97990.72
2022-09-17T15:00:38.839Z,97991.13
2022-09-17T15:05:50.832Z,97976.88
2022-09-17T15:11:06.175Z,97974.06
2022-09-17T15:16:36.897Z,97994.56
2022-09-17T15:21:41.806Z,97953.53
2022-09-17T15:26:46.119Z,98002.91
2022-09-17T15:31:48.417Z,97939.63
2022-09-17T15:37:17.708Z,97947.97
2022-09-17T15:42:20.815Z,98006.72
2022-09-17T15:47:58.941Z,97990.22
2022-09-17T15:53:10.341Z,98022.78
2022-09-17T15:58:48.161Z,98000.63
2022-09-17T16:04:01.135Z,98034.84
2022-09-17T16:09:40.671Z,98036.97
2022-09-17T16:14:47.667Z,97702.25
2022-09-17T16:19:49.910Z,97745.59
2022-09-17T16:24:53.148Z,98017.88
2022-09-17T16:30:03.098Z,97931.41
2022-09-17T16:35:06.412Z,98051.53
2022-09-17T16:40:13.186Z,98010.88
2022-09-17T16:45:16.140Z,97970.28
2022-09-17T16:50:18.870Z,98063.25
2022-09-17T16:55:24.704Z,98035.53
2022-09-17T17:00:27.630Z,98011.56
2022-09-17T17:05:30.101Z,97983.53
2022-09-17T17:10:34.417Z,97982.91
2022-09-17T17:15:36.571Z,98070.09
2022-09-17T17:20:38.705Z,98104.41
2022-09-17T17:25:41.591Z,98037.56
2022-09-17T17:30:47.653Z,98063.34
2022-09-17T17:35:49.873Z,98040.28
2022-09-17T17:41:09.538Z,98077.25
2022-09-17T17:46:12.311Z,98074.06
2022-09-17T17:51:14.743Z,97994.25
2022-09-17T17:56:23.421Z,98081.19
2022-09-17T18:01:29.981Z,98072.72
2022-09-17T18:06:32.330Z,98080.63
2022-09-17T18:11:35.158Z,98106.66
2022-09-17T18:16:38.862Z,98048.28
2022-09-17T18:21:41.211Z,98011.41
2022-09-17T18:26:43.378Z,98016.59
2022-09-17T18:31:45.614Z,98101.06
2022-09-17T18:36:51.201Z,98070.22
2022-09-17T18:41:53.778Z,98117.72
2022-09-17T18:47:00.805Z,98088.53
2022-09-17T18:52:03.214Z,98088.63
2022-09-17T18:57:05.758Z,98018.28
2022-09-17T19:02:12.128Z,97990.41
2022-09-17T19:07:14.539Z,98107.28
2022-09-17T19:12:24.552Z,98043.00
2022-09-17T19:17:26.770Z,98084.34
2022-09-17T19:22:29.847Z,98025.28
2022-09-17T19:27:34.314Z,98112.03
2022-09-17T19:32:43.111Z,97990.84
2022-09-17T19:37:47.833Z,98052.06
2022-09-17T19:42:54.324Z,98082.97
2022-09-17T19:48:01.837Z,98111.38
2022-09-17T19:53:04.174Z,98161.50
2022-09-17T19:58:06.633Z,98073.72
2022-09-17T20:03:11.888Z,98109.94
2022-09-17T20:08:14.140Z,98142.72
2022-09-17T20:13:19.582Z,98116.38
2022-09-17T20:18:24.421Z,98094.84
2022-09-17T20:23:31.961Z,98194.09
2022-09-17T20:28:36.927Z,98156.31
2022-09-17T20:33:42.109Z,98196.81
2022-09-17T20:44:10.052Z,97915.50
2022-09-17T20:49:12.376Z,98141.16
2022-09-17T20:54:14.849Z,98193.53
2022-09-17T20:59:21.721Z,98193.53
2022-09-17T21:04:26.066Z,98217.72
2022-09-17T21:09:28.222Z,98141.00
2022-09-17T21:14:30.687Z,98158.28
2022-09-17T21:19:32.888Z,98197.88
2022-09-17T21:24:35.016Z,98079.22
2022-09-17T21:29:37.138Z,98179.25
2022-09-17T21:34:39.309Z,98222.38
2022-09-17T21:39:41.507Z,98196.47
2022-09-17T21:44:43.930Z,98208.69
2022-09-17T21:49:46.075Z,98226.94
2022-09-17T21:54:48.211Z,98183.91
2022-09-17T21:59:50.366Z,98210.59
2022-09-17T22:04:52.521Z,98125.47
2022-09-17T22:09:54.661Z,98229.81
2022-09-17T22:14:56.772Z,98174.59
2022-09-17T22:19:58.899Z,98135.94
2022-09-17T22:25:01.006Z,98250.44
2022-09-17T22:30:03.407Z,98209.16
2022-09-17T22:35:08.229Z,98190.13
2022-09-17T22:40:10.717Z,98124.56
2022-09-17T22:45:12.892Z,98138.38
2022-09-17T22:50:15.044Z,98189.19
2022-09-17T22:55:17.227Z,98140.19
2022-09-17T23:00:19.922Z,98138.47
2022-09-17T23:05:22.052Z,98245.38
2022-09-17T23:10:24.166Z,98137.75
2022-09-17T23:15:27.843Z,98207.50
2022-09-17T23:20:30.056Z,98142.16
2022-09-17T23:25:32.827Z,98224.75
2022-09-17T23:30:36.116Z,98196.31
2022-09-17T23:35:38.278Z,98163.56
2022-09-17T23:40:41.379Z,98083.53
2022-09-17T23:45:43.514Z,98203.34
2022-09-17T23:50:45.597Z,98144.81
2022-09-17T23:55:48.648Z,98187.16
